Terminal Aerodrome Forecast
Issued by NWS

Home | Current Version | Previous Version | Text Only | Print | Product List | Glossary On
Versions: 1 2 3 4 5 6 7 8 9 10 11 12 13 14 15 16 17 18
554
FTUS43 KMQT 231734
TAFIWD
TAF
KIWD 231734Z 2318/2418 15007KT P6SM BKN200
     FM232300 15008KT P6SM VCSH SCT060 BKN150
     FM240200 16013KT 5SM -SHRA VCTS BKN040CB WS010/18030KT
     FM240600 18011KT 4SM -SHRA VCTS OVC030CB WS010/19030KT
     FM240800 19010KT P6SM VCSH OVC020
     FM241300 24009KT P6SM SCT020
      AMD LTD TO CLD VIS AND WIND=

USA.gov is the U.S. government's official web portal to all federal, state and local government web resources and services.